Matheson, Canada
Current Conditions -  °F | °C
As of 7:00 PM on Friday 31 Oct 2014 (Local Time) from CYTS Reporting Station
Light Snow Light Snow  
Wind Chill: 18°   Ceiling: 5000
Heat Index: 25°   Visibility: 15mi
Dew Point: 18°   Wind: 6mph
Humidity: 74%   Direction: 320°NW
Pressure: 30.31"   Gusts: NA
Location:  48.53°N, 80.47°W
Report Text: CYTS 312300Z 32005KT 15SM -SN BKN050 M04/M08 A3031 RMK SC6 SLP284
Loading
Personal Weather Stations






























Interactive Weather Map
Tropical Storm Tracking
New forecast layout! Learn more

10-Day Weather Forecast

Advertisements
Track Severe Weather on mobile